createdAt,value
2023-04-30T00:01:39.938Z,22.10
2023-04-30T00:04:09.987Z,25.03
2023-04-30T00:06:40.079Z,20.50
2023-04-30T00:09:10.202Z,31.10
2023-04-30T00:11:40.974Z,121.17
2023-04-30T00:14:10.583Z,22.97
2023-04-30T00:16:40.148Z,28.33
2023-04-30T00:19:10.396Z,25.13
2023-04-30T00:21:39.390Z,26.30
2023-04-30T00:24:09.342Z,24.77
2023-04-30T00:26:40.758Z,23.10
2023-04-30T00:29:10.666Z,21.97
2023-04-30T00:31:39.307Z,24.10
2023-04-30T00:34:08.475Z,22.47
2023-04-30T00:36:38.433Z,32.07
2023-04-30T00:39:08.025Z,25.23
2023-04-30T00:41:40.232Z,34.83
2023-04-30T00:44:10.089Z,26.10
2023-04-30T00:46:40.531Z,23.40
2023-04-30T00:49:10.644Z,21.80
2023-04-30T00:51:44.135Z,26.53
2023-04-30T00:54:13.958Z,21.37
2023-04-30T00:56:45.017Z,25.73
2023-04-30T00:59:16.424Z,25.37
2023-04-30T01:01:46.186Z,25.10
2023-04-30T01:04:16.412Z,29.77
2023-04-30T01:06:46.696Z,23.67
2023-04-30T01:09:16.868Z,25.13
2023-04-30T01:12:04.508Z,20.23
2023-04-30T01:14:50.778Z,23.10
2023-04-30T01:17:30.063Z,22.50
2023-04-30T01:20:03.620Z,21.17
2023-04-30T01:22:45.393Z,22.20
2023-04-30T01:25:53.833Z,26.90
2023-04-30T01:28:26.777Z,23.27
2023-04-30T01:30:56.747Z,21.60
2023-04-30T01:33:27.253Z,20.90
2023-04-30T01:36:36.721Z,23.27
2023-04-30T01:39:27.611Z,22.63
2023-04-30T01:42:10.025Z,21.10
2023-04-30T01:45:04.265Z,20.60
2023-04-30T01:47:41.609Z,19.07
2023-04-30T01:50:29.626Z,22.90
2023-04-30T01:53:03.346Z,22.27
2023-04-30T01:55:43.149Z,25.30
2023-04-30T01:58:16.960Z,26.70
2023-04-30T02:00:48.987Z,27.97
2023-04-30T02:03:19.197Z,25.50
2023-04-30T02:05:49.476Z,24.70
2023-04-30T02:08:20.100Z,20.60
2023-04-30T02:10:49.772Z,20.60
2023-04-30T02:13:19.730Z,22.17
2023-04-30T02:15:52.283Z,20.00
2023-04-30T02:18:23.044Z,23.20
2023-04-30T02:20:53.534Z,23.27
2023-04-30T02:23:24.051Z,22.33
2023-04-30T02:25:54.558Z,22.50
2023-04-30T02:28:25.019Z,21.37
2023-04-30T02:30:56.666Z,26.33
2023-04-30T02:33:27.376Z,26.00
2023-04-30T02:35:57.770Z,25.63
2023-04-30T02:38:27.762Z,19.63
2023-04-30T02:40:57.680Z,28.60
2023-04-30T02:43:27.305Z,19.13
2023-04-30T02:45:58.705Z,25.40
2023-04-30T02:48:29.350Z,23.60
2023-04-30T02:50:59.786Z,19.80
2023-04-30T02:53:29.938Z,22.40
2023-04-30T02:56:00.693Z,27.63
2023-04-30T02:58:31.134Z,21.53
2023-04-30T03:01:02.549Z,22.27
2023-04-30T03:03:33.112Z,18.73
2023-04-30T03:06:02.891Z,20.10
2023-04-30T03:08:32.989Z,23.30
2023-04-30T03:11:02.715Z,22.97
2023-04-30T03:13:31.530Z,18.57
2023-04-30T03:16:05.374Z,24.50
2023-04-30T03:18:35.017Z,24.77
2023-04-30T03:21:04.975Z,24.40
2023-04-30T03:23:34.420Z,26.43
2023-04-30T03:26:04.313Z,19.60
2023-04-30T03:28:34.222Z,18.10
2023-04-30T03:31:06.996Z,22.03
2023-04-30T03:33:37.311Z,19.50
2023-04-30T03:36:09.996Z,21.93
2023-04-30T03:38:40.387Z,24.27
2023-04-30T03:41:10.810Z,19.77
2023-04-30T03:43:41.714Z,27.73
2023-04-30T03:46:12.686Z,22.37
2023-04-30T03:48:42.880Z,24.17
2023-04-30T03:51:13.015Z,22.10
2023-04-30T03:53:43.574Z,27.57
2023-04-30T03:56:14.563Z,23.23
2023-04-30T03:58:45.163Z,21.63
2023-04-30T04:01:16.876Z,19.33
2023-04-30T04:03:46.873Z,27.73
2023-04-30T04:06:15.952Z,21.70
2023-04-30T04:08:46.017Z,24.87
2023-04-30T04:11:15.772Z,26.70
2023-04-30T04:13:45.273Z,26.63
2023-04-30T04:16:16.225Z,23.13
2023-04-30T04:18:46.711Z,18.93
2023-04-30T04:21:18.006Z,22.10
2023-04-30T04:23:47.966Z,21.47
2023-04-30T04:26:20.323Z,20.27
2023-04-30T04:28:50.886Z,21.23
2023-04-30T04:31:23.205Z,21.93
2023-04-30T04:33:58.185Z,21.57
2023-04-30T04:36:29.292Z,20.13
2023-04-30T04:39:02.523Z,22.50
2023-04-30T04:41:32.731Z,17.70
2023-04-30T04:44:04.157Z,19.93
2023-04-30T04:46:39.166Z,20.27
2023-04-30T04:49:10.282Z,20.60
2023-04-30T04:51:41.339Z,19.53
2023-04-30T04:54:12.130Z,21.50
2023-04-30T04:56:43.557Z,16.77
2023-04-30T04:59:13.069Z,21.23
2023-04-30T05:01:44.033Z,18.93
2023-04-30T05:04:14.668Z,22.00
2023-04-30T05:06:44.708Z,19.13
2023-04-30T05:09:15.744Z,17.77
2023-04-30T05:11:46.867Z,29.23
2023-04-30T05:14:17.002Z,12.37
2023-04-30T05:16:49.299Z,24.77
2023-04-30T05:19:20.289Z,29.50
2023-04-30T05:21:50.809Z,16.23
2023-04-30T05:24:20.790Z,15.10
2023-04-30T05:26:50.098Z,16.80
2023-04-30T05:29:20.009Z,13.10
2023-04-30T05:31:51.929Z,17.03
2023-04-30T05:34:21.875Z,14.97
2023-04-30T05:36:52.310Z,13.80
2023-04-30T05:39:22.633Z,12.57
2023-04-30T05:41:53.499Z,12.97
2023-04-30T05:44:24.006Z,12.67
2023-04-30T05:46:55.962Z,20.87
2023-04-30T05:49:25.717Z,11.80
2023-04-30T05:51:55.795Z,13.30
2023-04-30T05:54:26.109Z,10.20
2023-04-30T05:56:58.514Z,12.60
2023-04-30T05:59:27.386Z,11.37
2023-04-30T06:02:00.342Z,13.60
2023-04-30T06:04:29.934Z,13.30
2023-04-30T06:07:00.647Z,11.57
2023-04-30T06:09:30.960Z,15.93
2023-04-30T06:12:03.141Z,17.17
2023-04-30T06:14:33.994Z,18.60
2023-04-30T06:17:05.999Z,14.50
2023-04-30T06:19:36.865Z,17.77
2023-04-30T06:22:07.146Z,13.63
2023-04-30T06:24:36.266Z,11.77
2023-04-30T06:27:07.504Z,21.83
2023-04-30T06:29:37.723Z,14.90
2023-04-30T06:32:09.524Z,12.23
2023-04-30T06:34:40.570Z,14.60
2023-04-30T06:37:13.184Z,11.97
2023-04-30T06:39:42.348Z,13.43
2023-04-30T06:42:12.043Z,11.47
2023-04-30T06:44:43.018Z,12.00
2023-04-30T06:47:13.597Z,10.47
2023-04-30T06:49:44.039Z,11.33
2023-04-30T06:52:14.169Z,13.50
2023-04-30T06:54:43.923Z,8.77
2023-04-30T06:57:14.681Z,16.10
2023-04-30T06:59:45.124Z,12.30
2023-04-30T07:02:16.741Z,10.60
2023-04-30T07:04:46.395Z,10.37
2023-04-30T07:07:16.804Z,11.30
2023-04-30T07:09:50.326Z,11.33
2023-04-30T07:12:23.150Z,15.80
2023-04-30T07:14:52.645Z,12.13
2023-04-30T07:17:24.194Z,10.60
2023-04-30T07:19:56.079Z,12.67
2023-04-30T07:22:25.407Z,11.00
2023-04-30T07:24:56.690Z,9.03
2023-04-30T07:27:25.336Z,9.00
2023-04-30T07:29:56.327Z,8.00
2023-04-30T07:32:28.122Z,10.10
2023-04-30T07:34:58.725Z,12.10
2023-04-30T07:37:29.054Z,9.03
2023-04-30T07:39:58.618Z,10.10
2023-04-30T07:42:28.199Z,10.73
2023-04-30T07:44:56.898Z,15.43
2023-04-30T07:47:28.445Z,9.83
2023-04-30T07:49:59.090Z,9.03
2023-04-30T07:52:28.670Z,8.40
2023-04-30T07:54:57.646Z,15.87
2023-04-30T07:57:28.358Z,9.30
2023-04-30T07:59:58.560Z,8.57
2023-04-30T08:02:29.222Z,22.43
2023-04-30T08:04:59.369Z,47.97
2023-04-30T08:07:29.037Z,7.10
2023-04-30T08:09:57.968Z,9.30
2023-04-30T08:12:27.120Z,8.13
2023-04-30T08:15:02.185Z,8.73
2023-04-30T08:17:33.578Z,8.50
2023-04-30T08:20:03.247Z,11.23
2023-04-30T08:22:33.974Z,7.63
2023-04-30T08:25:03.707Z,7.80
2023-04-30T08:27:33.935Z,6.83
2023-04-30T08:30:03.883Z,10.27
2023-04-30T08:32:38.875Z,6.20
2023-04-30T08:35:09.753Z,8.40
2023-04-30T08:37:38.735Z,7.50
2023-04-30T08:40:12.740Z,5.67
2023-04-30T08:42:52.876Z,8.80
2023-04-30T08:45:24.414Z,5.10
2023-04-30T08:47:55.859Z,6.43
2023-04-30T08:50:24.810Z,6.93
2023-04-30T08:52:53.289Z,5.13
2023-04-30T08:55:23.045Z,5.40
2023-04-30T08:57:52.444Z,8.77
2023-04-30T09:00:21.135Z,15.90
2023-04-30T09:02:54.612Z,6.70
2023-04-30T09:05:23.652Z,9.20
2023-04-30T09:08:02.964Z,7.67
2023-04-30T09:10:35.144Z,7.37
2023-04-30T09:13:07.673Z,6.13
2023-04-30T09:15:38.760Z,7.37
2023-04-30T09:18:18.045Z,7.30
2023-04-30T09:21:01.423Z,13.87
2023-04-30T09:23:32.235Z,6.37
2023-04-30T09:26:01.939Z,7.43
2023-04-30T09:28:32.327Z,5.80
2023-04-30T09:31:01.214Z,7.40
2023-04-30T09:33:47.894Z,4.80
2023-04-30T09:36:18.616Z,6.10
2023-04-30T09:38:49.061Z,3.60
2023-04-30T09:41:26.929Z,7.53
2023-04-30T09:43:55.887Z,8.50
2023-04-30T09:46:33.572Z,5.63
2023-04-30T09:49:07.325Z,4.67
2023-04-30T09:51:37.544Z,7.90
2023-04-30T09:54:13.778Z,5.00
2023-04-30T09:56:43.673Z,7.87
2023-04-30T09:59:15.664Z,6.00
2023-04-30T10:01:45.533Z,6.17
2023-04-30T10:04:16.803Z,4.50
2023-04-30T10:06:47.798Z,5.30
2023-04-30T10:09:18.466Z,4.67
2023-04-30T10:11:48.440Z,11.50
2023-04-30T10:14:21.606Z,5.63
2023-04-30T10:16:59.427Z,2.93
2023-04-30T10:19:38.050Z,4.33
2023-04-30T10:22:08.836Z,7.27
2023-04-30T10:24:39.125Z,8.30
2023-04-30T10:27:08.720Z,3.27
2023-04-30T10:29:38.051Z,4.70
2023-04-30T10:32:09.921Z,4.20
2023-04-30T10:34:55.072Z,9.73
2023-04-30T10:37:34.514Z,4.87
2023-04-30T10:40:05.278Z,4.50
2023-04-30T10:42:38.014Z,3.10
2023-04-30T10:45:11.733Z,4.30
2023-04-30T10:47:46.250Z,3.23
2023-04-30T10:50:18.085Z,4.37
2023-04-30T10:52:47.682Z,5.30
2023-04-30T10:55:19.537Z,5.47
2023-04-30T10:57:51.587Z,3.90
2023-04-30T11:00:26.408Z,3.67
2023-04-30T11:03:04.047Z,3.13
2023-04-30T11:05:39.571Z,4.93
2023-04-30T11:08:13.189Z,3.30
2023-04-30T11:11:00.696Z,3.83
2023-04-30T11:13:29.628Z,2.53
2023-04-30T11:16:06.093Z,2.53
2023-04-30T11:18:34.889Z,2.40
2023-04-30T11:21:07.320Z,4.10
2023-04-30T11:23:41.599Z,2.97
2023-04-30T11:26:11.300Z,3.00
2023-04-30T11:28:40.102Z,5.10
2023-04-30T11:31:09.743Z,3.63
2023-04-30T11:33:42.097Z,2.10
2023-04-30T11:36:12.510Z,3.83
2023-04-30T11:38:43.383Z,3.53
2023-04-30T11:41:15.049Z,2.20
2023-04-30T11:43:45.577Z,2.67
2023-04-30T11:46:19.025Z,3.90
2023-04-30T11:48:49.817Z,3.33
2023-04-30T11:51:23.135Z,4.50
2023-04-30T11:53:53.732Z,3.17
2023-04-30T11:56:25.394Z,3.70
2023-04-30T11:58:57.392Z,4.63
2023-04-30T12:01:29.549Z,3.47
2023-04-30T12:03:59.570Z,2.00
2023-04-30T12:06:32.610Z,4.20
2023-04-30T12:09:08.368Z,3.47
2023-04-30T12:11:38.298Z,7.00
2023-04-30T12:14:10.791Z,3.13
2023-04-30T12:16:49.263Z,2.40
2023-04-30T12:19:21.312Z,2.50
2023-04-30T12:21:55.026Z,2.20
2023-04-30T12:24:28.828Z,2.60
2023-04-30T12:27:01.981Z,3.40
2023-04-30T12:29:31.147Z,2.90
2023-04-30T12:32:02.472Z,2.33
2023-04-30T12:34:33.833Z,2.23
2023-04-30T12:37:05.500Z,2.73
2023-04-30T12:39:36.644Z,5.13
2023-04-30T12:42:06.881Z,2.13
2023-04-30T12:44:45.733Z,2.80
2023-04-30T12:47:16.233Z,2.50
2023-04-30T12:49:48.264Z,3.17
2023-04-30T12:52:18.681Z,4.50
2023-04-30T12:54:48.158Z,2.50
2023-04-30T12:57:17.681Z,4.53
2023-04-30T13:00:01.509Z,2.20
2023-04-30T13:02:32.792Z,4.17
2023-04-30T13:05:03.068Z,3.70
2023-04-30T13:07:41.325Z,2.03
2023-04-30T13:10:14.431Z,3.13
2023-04-30T13:12:44.957Z,2.20
2023-04-30T13:15:14.498Z,2.70
2023-04-30T13:17:45.366Z,4.40
2023-04-30T13:20:16.844Z,3.60
2023-04-30T13:22:47.653Z,2.20
2023-04-30T13:25:17.512Z,3.80
2023-04-30T13:27:46.324Z,2.83
2023-04-30T13:30:16.402Z,5.63
2023-04-30T13:32:46.729Z,5.00
2023-04-30T13:35:16.337Z,3.30
2023-04-30T13:37:48.138Z,3.67
2023-04-30T13:40:17.714Z,3.07
2023-04-30T13:42:48.897Z,4.33
2023-04-30T13:45:17.987Z,3.47
2023-04-30T13:47:47.965Z,4.63
2023-04-30T13:50:18.172Z,3.50
2023-04-30T13:52:49.378Z,1.70
2023-04-30T13:55:18.760Z,2.23
2023-04-30T13:57:48.223Z,2.17
2023-04-30T14:00:22.167Z,3.63
2023-04-30T14:02:52.892Z,1.90
2023-04-30T14:05:23.067Z,2.13
2023-04-30T14:07:55.038Z,3.77
2023-04-30T14:10:25.035Z,2.40
2023-04-30T14:12:56.039Z,1.73
2023-04-30T14:15:25.830Z,3.90
2023-04-30T14:17:55.907Z,3.30
2023-04-30T14:20:26.730Z,1.80
2023-04-30T14:22:59.418Z,4.27
2023-04-30T14:25:31.078Z,1.80
2023-04-30T14:28:01.397Z,2.70
2023-04-30T14:30:33.512Z,2.37
2023-04-30T14:33:03.223Z,2.03
2023-04-30T14:35:34.127Z,4.83
2023-04-30T14:38:06.163Z,2.33
2023-04-30T14:40:36.273Z,2.33
2023-04-30T14:43:08.725Z,1.97
2023-04-30T14:45:38.867Z,1.80
2023-04-30T14:48:10.201Z,2.70
2023-04-30T14:50:39.987Z,1.97
2023-04-30T14:53:12.102Z,1.83
2023-04-30T14:55:41.572Z,1.73
2023-04-30T14:58:12.056Z,1.77
2023-04-30T15:00:40.987Z,1.67
2023-04-30T15:03:12.088Z,2.83
2023-04-30T15:05:43.034Z,2.83
2023-04-30T15:08:13.424Z,2.20
2023-04-30T15:10:43.008Z,1.97
2023-04-30T15:13:14.237Z,4.80
2023-04-30T15:15:47.630Z,1.33
2023-04-30T15:18:16.765Z,2.50
2023-04-30T15:20:47.215Z,2.33
2023-04-30T15:23:18.612Z,2.93
2023-04-30T15:25:48.167Z,2.40
2023-04-30T15:28:17.410Z,2.13
2023-04-30T15:30:47.278Z,3.70
2023-04-30T15:33:19.343Z,1.67
2023-04-30T15:35:49.922Z,2.73
2023-04-30T15:38:21.886Z,1.77
2023-04-30T15:40:51.947Z,1.40
2023-04-30T15:43:23.975Z,1.87
2023-04-30T15:45:52.963Z,2.20
2023-04-30T15:48:22.356Z,1.70
2023-04-30T15:50:52.532Z,1.73
2023-04-30T15:53:23.429Z,1.67
2023-04-30T15:55:53.320Z,2.03
2023-04-30T15:58:23.503Z,1.80
2023-04-30T16:00:52.602Z,4.93
2023-04-30T16:03:22.279Z,1.50
2023-04-30T16:05:52.474Z,1.50
2023-04-30T16:08:22.809Z,1.97
2023-04-30T16:10:52.849Z,2.27
2023-04-30T16:13:22.231Z,1.80
2023-04-30T16:15:52.664Z,2.23
2023-04-30T16:18:23.608Z,2.63
2023-04-30T16:20:53.011Z,1.83
2023-04-30T16:23:23.433Z,3.30
2023-04-30T16:25:53.401Z,2.97
2023-04-30T16:28:24.495Z,1.73
2023-04-30T16:30:54.181Z,1.30
2023-04-30T16:33:25.183Z,2.30
2023-04-30T16:35:55.853Z,2.03
2023-04-30T16:38:27.767Z,2.67
2023-04-30T16:40:57.284Z,2.90
2023-04-30T16:43:27.367Z,2.30
2023-04-30T16:45:57.031Z,2.70
2023-04-30T16:48:27.211Z,1.40
2023-04-30T16:50:57.135Z,1.67
2023-04-30T16:53:28.444Z,1.73
2023-04-30T16:55:57.006Z,2.00
2023-04-30T16:58:27.137Z,3.00
2023-04-30T17:00:57.532Z,8.40
2023-04-30T17:03:26.358Z,1.97
2023-04-30T17:05:56.164Z,2.03
2023-04-30T17:08:27.116Z,1.83
2023-04-30T17:10:56.783Z,1.43
2023-04-30T17:13:26.337Z,1.77
2023-04-30T17:16:01.703Z,1.70
2023-04-30T17:18:31.994Z,3.50
2023-04-30T17:21:01.012Z,1.23
2023-04-30T17:23:32.495Z,2.07
2023-04-30T17:26:02.079Z,2.10
2023-04-30T17:28:30.465Z,3.00
2023-04-30T17:31:03.881Z,3.10
2023-04-30T17:33:33.326Z,2.30
2023-04-30T17:36:02.800Z,6.80
2023-04-30T17:38:32.591Z,2.37
2023-04-30T17:41:02.499Z,5.33
2023-04-30T17:43:32.702Z,1.77
2023-04-30T17:46:02.911Z,2.00
2023-04-30T17:48:32.348Z,2.80
2023-04-30T17:51:02.338Z,2.13
2023-04-30T17:53:33.389Z,1.90
2023-04-30T17:56:03.723Z,7.23
2023-04-30T17:58:33.343Z,1.83
2023-04-30T18:01:03.646Z,1.70
2023-04-30T18:03:33.972Z,1.67
2023-04-30T18:06:04.247Z,1.77
2023-04-30T18:08:35.135Z,2.03
2023-04-30T18:11:04.156Z,1.83
2023-04-30T18:13:33.096Z,1.27
2023-04-30T18:16:02.219Z,3.10
2023-04-30T18:18:32.273Z,5.00
2023-04-30T18:21:01.787Z,8.43
2023-04-30T18:23:31.784Z,4.30
2023-04-30T18:26:03.100Z,5.20
2023-04-30T18:28:33.991Z,6.80
2023-04-30T18:31:03.445Z,2.90
2023-04-30T18:33:32.992Z,7.90
2023-04-30T18:36:05.586Z,2.03
2023-04-30T18:38:35.736Z,4.10
2023-04-30T18:41:08.202Z,6.60
2023-04-30T18:43:40.554Z,3.33
2023-04-30T18:46:10.727Z,6.10
2023-04-30T18:48:41.082Z,2.43
2023-04-30T18:51:10.088Z,2.33
2023-04-30T18:53:39.055Z,3.10
2023-04-30T18:56:10.912Z,3.60
2023-04-30T18:58:41.340Z,3.07
2023-04-30T19:01:11.043Z,2.47
2023-04-30T19:03:42.041Z,4.27
2023-04-30T19:06:11.800Z,6.10
2023-04-30T19:08:45.586Z,2.87
2023-04-30T19:11:19.120Z,2.30
2023-04-30T19:13:49.103Z,7.00
2023-04-30T19:16:18.685Z,3.57
2023-04-30T19:18:47.585Z,2.00
2023-04-30T19:21:18.176Z,5.53
2023-04-30T19:23:47.309Z,3.63
2023-04-30T19:26:18.222Z,4.67
2023-04-30T19:28:48.975Z,10.60
2023-04-30T19:31:18.681Z,5.97
2023-04-30T19:33:48.164Z,12.73
2023-04-30T19:36:19.259Z,4.00
2023-04-30T19:38:48.690Z,2.47
2023-04-30T19:41:18.993Z,6.93
2023-04-30T19:43:47.951Z,6.07
2023-04-30T19:46:17.344Z,2.53
2023-04-30T19:48:47.605Z,2.63
2023-04-30T19:51:17.269Z,3.20
2023-04-30T19:53:47.845Z,9.20
2023-04-30T19:56:19.290Z,3.80
2023-04-30T19:58:49.065Z,3.57
2023-04-30T20:01:19.599Z,3.57
2023-04-30T20:03:50.284Z,5.20
2023-04-30T20:06:20.596Z,11.20
2023-04-30T20:08:49.443Z,7.00
2023-04-30T20:11:23.392Z,8.07
2023-04-30T20:13:51.930Z,4.67
2023-04-30T20:16:22.438Z,2.80
2023-04-30T20:18:51.465Z,5.80
2023-04-30T20:21:25.077Z,8.20
2023-04-30T20:23:55.200Z,4.97
2023-04-30T20:26:27.382Z,3.57
2023-04-30T20:28:57.433Z,4.60
2023-04-30T20:31:31.707Z,8.70
2023-04-30T20:34:02.291Z,7.13
2023-04-30T20:36:32.880Z,3.57
2023-04-30T20:39:01.823Z,3.03
2023-04-30T20:41:33.003Z,3.90
2023-04-30T20:44:02.060Z,7.80
2023-04-30T20:46:32.833Z,4.63
2023-04-30T20:49:05.762Z,8.77
2023-04-30T20:51:34.664Z,3.50
2023-04-30T20:54:03.850Z,11.23
2023-04-30T20:56:34.273Z,4.90
2023-04-30T20:59:05.347Z,3.90
2023-04-30T21:01:34.472Z,10.30
2023-04-30T21:04:05.271Z,5.83
2023-04-30T21:06:34.857Z,5.80
2023-04-30T21:09:04.615Z,8.20
2023-04-30T21:11:35.108Z,7.03
2023-04-30T21:14:04.715Z,7.50
2023-04-30T21:16:34.168Z,4.60
2023-04-30T21:19:04.342Z,3.67
2023-04-30T21:21:34.424Z,4.50
2023-04-30T21:24:05.168Z,5.03
2023-04-30T21:26:35.539Z,4.00
2023-04-30T21:29:05.006Z,4.43
2023-04-30T21:31:34.871Z,7.53
2023-04-30T21:34:04.354Z,10.50
2023-04-30T21:36:35.806Z,8.40
2023-04-30T21:39:06.993Z,3.00
2023-04-30T21:41:39.628Z,5.37
2023-04-30T21:44:08.694Z,7.00
2023-04-30T21:46:38.678Z,6.93
2023-04-30T21:49:08.521Z,11.23
2023-04-30T21:51:38.369Z,4.93
2023-04-30T21:54:07.866Z,5.53
2023-04-30T21:56:40.357Z,3.10
2023-04-30T21:59:09.704Z,3.40
2023-04-30T22:01:38.941Z,6.30
2023-04-30T22:04:08.879Z,5.20
2023-04-30T22:06:37.872Z,5.03
2023-04-30T22:09:06.770Z,4.43
2023-04-30T22:11:37.075Z,5.77
2023-04-30T22:14:07.398Z,4.07
2023-04-30T22:16:36.886Z,6.47
2023-04-30T22:19:05.912Z,6.77
2023-04-30T22:21:34.925Z,7.00
2023-04-30T22:24:04.470Z,14.30
2023-04-30T22:26:34.533Z,5.03
2023-04-30T22:29:06.052Z,3.87
2023-04-30T22:31:36.026Z,5.17
2023-04-30T22:34:07.366Z,7.90
2023-04-30T22:36:37.133Z,6.03
2023-04-30T22:39:07.766Z,3.57
2023-04-30T22:41:38.548Z,4.10
2023-04-30T22:44:10.281Z,3.50
2023-04-30T22:46:40.641Z,4.87
2023-04-30T22:49:19.972Z,5.00
2023-04-30T22:51:57.214Z,6.90
2023-04-30T22:54:26.742Z,6.80
2023-04-30T22:56:56.021Z,5.93
2023-04-30T22:59:26.936Z,4.83
2023-04-30T23:01:57.792Z,4.20
2023-04-30T23:04:28.497Z,4.30
2023-04-30T23:06:57.233Z,12.33
2023-04-30T23:09:26.561Z,9.10
2023-04-30T23:11:57.902Z,7.93
2023-04-30T23:14:28.232Z,4.30
2023-04-30T23:16:58.170Z,3.43
2023-04-30T23:19:28.011Z,4.77
2023-04-30T23:21:57.544Z,6.87
2023-04-30T23:24:27.863Z,5.43
2023-04-30T23:26:57.799Z,6.30
2023-04-30T23:29:27.857Z,4.50
2023-04-30T23:31:56.854Z,5.23
2023-04-30T23:34:27.077Z,6.43
2023-04-30T23:36:56.692Z,4.80
2023-04-30T23:39:25.679Z,10.13
2023-04-30T23:41:56.213Z,3.20
2023-04-30T23:44:26.964Z,6.13
2023-04-30T23:46:57.020Z,6.13
2023-04-30T23:49:27.658Z,20.20
2023-04-30T23:51:58.432Z,4.77
2023-04-30T23:54:28.292Z,5.40
2023-04-30T23:56:59.428Z,5.20
2023-04-30T23:59:29.783Z,4.63
